< Typhoon 196611 1966 Season Typhoon 196613 >
Typhoon 196612 (SUSAN)
General InformationTrack Information on Google Maps || Disaster Info.ResourceGoogle EarthGE AnimationAtom FeedGeoJSON
Detalied Best Track (Time Zone = UTC)
Year Month Day Hour Lat. Long. Pressure (hPa) Wind (kt) Class Image Chart
1966 8 12 00 16.9 115.5 1002 0 2 -- Chart
1966 8 12 06 16.7 115.7 1000 0 2 -- Chart
1966 8 12 12 16.5 115.7 999 0 2 -- Chart
1966 8 12 18 16.7 116.0 998 0 2 -- Chart
1966 8 13 00 17.0 116.1 996 0 9 -- Chart
1966 8 13 06 17.5 116.5 992 0 9 -- Chart
1966 8 13 12 17.5 117.0 992 0 9 -- Chart
1966 8 13 18 17.8 117.4 992 0 9 -- Chart
1966 8 14 00 18.2 117.4 990 0 9 -- Chart
1966 8 14 06 18.6 117.8 987 0 9 -- Chart
1966 8 14 12 19.0 118.5 987 0 9 -- Chart
1966 8 14 18 19.3 119.0 987 0 9 -- Chart
1966 8 15 00 19.6 119.6 988 0 9 -- Chart
1966 8 15 06 20.2 119.9 985 0 9 -- Chart
1966 8 15 12 21.0 121.2 985 0 9 -- Chart
1966 8 15 18 21.7 122.6 988 0 9 -- Chart
1966 8 16 00 22.8 124.3 990 0 9 -- Chart
1966 8 16 06 24.5 125.7 992 0 9 -- Chart
1966 8 16 12 26.2 126.0 992 0 9 -- Chart
1966 8 16 18 26.8 125.6 992 0 9 -- Chart
1966 8 17 00 27.6 124.9 994 0 2 -- Chart
1966 8 17 06 28.5 124.8 994 0 2 -- Chart
1966 8 17 12 29.5 125.0 994 0 2 -- Chart
1966 8 17 18 30.0 125.5 994 0 2 -- Chart
1966 8 18 00 30.0 126.5 996 0 2 -- Chart
1966 8 18 06 30.0 127.5 996 0 2 -- Chart
1966 8 18 12 30.0 128.5 996 0 2 -- Chart
1966 8 18 18 30.0 129.0 998 0 2 -- Chart
Japan Meteorological Agency Best Track Data | Correction Date : 1989-06-01
< Typhoon 196611 1966 Season Typhoon 196613 >

Help